Time;durP1;ratioP1;P1;durP2;ratioP2;P2;SDS_P1;SDS_P2;PMS_P1;PMS_P2;Temp;Humidity;BMP_temperature;BMP_pressure;BME280_temperature;BME280_humidity;BME280_pressure;Samples;Min_cycle;Max_cycle;Signal;HPM_P1;HPM_P2
2022/02/07 00:01:10;;;;;;;0.43;0.40;;;5.40;97.60;;;;;;5001901;28;20308;-74
2022/02/07 00:03:44;;;;;;;0.60;0.40;;;5.30;98.60;;;;;;5006368;28;20209;-74
2022/02/07 00:06:13;;;;;;;1.92;0.60;;;5.40;99.40;;;;;;5008301;28;20229;-73
2022/02/07 00:08:40;;;;;;;0.55;0.40;;;5.40;99.90;;;;;;5007204;28;20231;-73
2022/02/07 00:11:08;;;;;;;0.50;0.50;;;5.30;99.00;;;;;;5004143;28;20230;-73
2022/02/07 00:13:35;;;;;;;1.65;0.77;;;5.40;99.30;;;;;;5006022;28;20218;-74
2022/02/07 00:16:02;;;;;;;0.85;0.60;;;5.40;97.60;;;;;;5005458;28;20240;-73
2022/02/07 00:18:29;;;;;;;0.40;0.30;;;5.30;95.70;;;;;;4985351;28;20210;-73
2022/02/07 00:20:57;;;;;;;0.50;0.40;;;5.30;95.40;;;;;;4985333;28;20225;-74
2022/02/07 00:23:24;;;;;;;1.55;0.30;;;5.20;93.80;;;;;;5006165;28;20265;-74
2022/02/07 00:25:51;;;;;;;0.40;0.20;;;5.10;88.40;;;;;;5005119;28;20215;-73
2022/02/07 00:28:19;;;;;;;0.68;0.30;;;5.10;85.50;;;;;;5003402;28;20231;-74
2022/02/07 00:30:46;;;;;;;0.77;0.40;;;5.00;85.50;;;;;;5003348;28;20239;-74
2022/02/07 00:33:14;;;;;;;0.43;0.43;;;5.00;85.40;;;;;;5003927;28;20230;-73
2022/02/07 00:35:41;;;;;;;1.48;0.40;;;5.00;85.50;;;;;;5011697;28;20246;-73
2022/02/07 00:38:12;;;;;;;0.40;0.40;;;5.00;85.70;;;;;;5011528;28;20237;-74
2022/02/07 00:40:58;;;;;;;1.48;0.50;;;5.00;87.30;;;;;;5013364;28;20210;-73
2022/02/07 00:43:31;;;;;;;1.23;0.30;;;5.00;88.30;;;;;;5006757;28;20298;-74
2022/02/07 00:46:05;;;;;;;0.40;0.40;;;5.00;89.70;;;;;;5000755;28;20217;-73
2022/02/07 00:48:31;;;;;;;0.65;0.30;;;5.00;90.20;;;;;;5002956;28;20277;-73
2022/02/07 00:50:58;;;;;;;1.35;0.60;;;5.00;90.40;;;;;;5004397;28;20289;-74
2022/02/07 00:53:26;;;;;;;1.75;0.43;;;5.00;90.30;;;;;;5002983;28;20213;-74
2022/02/07 00:55:54;;;;;;;0.52;0.50;;;5.00;90.10;;;;;;5004702;28;20302;-74
2022/02/07 00:58:21;;;;;;;0.90;0.45;;;5.00;90.10;;;;;;5006200;28;20246;-74
2022/02/07 01:00:49;;;;;;;1.02;0.32;;;5.00;88.40;;;;;;5006175;28;20556;-75
2022/02/07 01:03:17;;;;;;;2.90;0.40;;;5.00;87.50;;;;;;5004870;28;20240;-74
2022/02/07 01:05:44;;;;;;;0.45;0.30;;;5.00;85.70;;;;;;5006053;28;20214;-73
2022/02/07 01:08:11;;;;;;;0.60;0.32;;;5.00;85.90;;;;;;5006882;28;20228;-73
2022/02/07 01:10:49;;;;;;;0.40;0.38;;;5.00;86.20;;;;;;5005242;28;20226;-73
2022/02/07 01:13:25;;;;;;;0.70;0.50;;;5.00;86.60;;;;;;5006351;28;20223;-73
2022/02/07 01:16:02;;;;;;;2.20;0.50;;;5.00;86.60;;;;;;5007205;28;20207;-73
2022/02/07 01:51:54;;;;;;;0.73;0.50;;;5.30;79.80;;;;;;4982254;28;20221;-72
2022/02/07 01:54:31;;;;;;;0.75;0.30;;;5.30;79.60;;;;;;4998771;28;20210;-73
2022/02/07 01:56:58;;;;;;;1.25;0.50;;;5.30;78.90;;;;;;4994558;28;20239;-72
2022/02/07 01:59:26;;;;;;;0.50;0.50;;;5.40;78.50;;;;;;4992553;28;20214;-72
2022/02/07 02:01:53;;;;;;;1.35;0.40;;;5.40;78.80;;;;;;4993146;28;20267;-71
2022/02/07 02:04:21;;;;;;;1.98;0.80;;;5.40;78.60;;;;;;4994677;28;20254;-72
2022/02/07 02:06:49;;;;;;;2.38;0.50;;;5.40;78.80;;;;;;4994846;28;20675;-72
2022/02/07 02:09:15;;;;;;;0.40;0.40;;;5.40;79.30;;;;;;4993203;28;20686;-75
2022/02/07 02:11:43;;;;;;;0.93;0.50;;;5.40;80.10;;;;;;4992938;28;20315;-72
2022/02/07 02:17:24;;;;;;;0.40;0.40;;;5.40;80.10;;;;;;4991707;28;20230;-72
2022/02/07 02:20:32;;;;;;;2.63;0.70;;;5.40;79.40;;;;;;4993122;28;20242;-72
2022/02/07 02:32:38;;;;;;;0.93;0.40;;;5.40;79.00;;;;;;4992226;28;20321;-72
2022/02/07 02:37:09;;;;;;;2.05;0.57;;;5.30;78.50;;;;;;5002685;28;20233;-74
2022/02/07 02:47:51;;;;;;;3.70;0.77;;;5.00;77.70;;;;;;4994422;28;20237;-75
2022/02/07 02:50:28;;;;;;;2.60;0.55;;;5.00;77.70;;;;;;4995666;28;20211;-75
2022/02/07 02:52:57;;;;;;;0.70;0.70;;;5.00;77.80;;;;;;4996248;28;20227;-75
2022/02/07 02:55:25;;;;;;;2.17;0.60;;;5.00;77.90;;;;;;4999918;28;20222;-74
2022/02/07 02:57:52;;;;;;;1.38;0.88;;;4.90;78.50;;;;;;5007985;28;20231;-74
2022/02/07 03:00:19;;;;;;;4.22;0.80;;;4.90;79.30;;;;;;5006617;28;20233;-74
2022/02/07 03:02:47;;;;;;;1.73;0.65;;;4.90;78.60;;;;;;5009756;28;20206;-74
2022/02/07 03:05:16;;;;;;;4.10;1.05;;;4.90;78.20;;;;;;5009457;28;20208;-74
2022/02/07 03:07:43;;;;;;;2.53;0.60;;;5.00;76.80;;;;;;4996847;28;20238;-74
2022/02/07 03:10:11;;;;;;;2.95;0.85;;;5.10;74.70;;;;;;4996257;28;20202;-74
2022/02/07 03:12:47;;;;;;;3.75;1.10;;;5.20;73.20;;;;;;5054577;22;20285;-79
2022/02/07 03:17:55;;;;;;;1.83;0.68;;;5.20;72.00;;;;;;5036612;28;20198;-78
2022/02/07 03:20:22;;;;;;;1.38;0.70;;;5.20;70.30;;;;;;5037853;28;20335;-79
2022/02/07 03:22:49;;;;;;;5.68;1.00;;;5.30;68.90;;;;;;5044560;28;20231;-78
2022/02/07 03:25:16;;;;;;;0.75;0.50;;;5.40;69.50;;;;;;5049628;28;20233;-80
2022/02/07 03:27:44;;;;;;;1.40;0.57;;;5.00;69.70;;;;;;5052987;28;20205;-79
2022/02/07 03:30:12;;;;;;;1.67;0.50;;;4.20;73.90;;;;;;5049759;28;20210;-80
2022/02/07 03:32:40;;;;;;;3.47;0.75;;;3.70;80.30;;;;;;5046022;28;20236;-80
2022/02/07 03:35:20;;;;;;;2.28;0.63;;;3.50;85.60;;;;;;5043190;28;20221;-80
2022/02/07 03:37:51;;;;;;;2.00;0.68;;;3.30;90.00;;;;;;5040833;28;20225;-80
2022/02/07 03:40:20;;;;;;;0.73;0.60;;;3.20;91.50;;;;;;5050404;28;20236;-79
2022/02/07 03:42:56;;;;;;;0.40;0.40;;;3.10;92.10;;;;;;5048247;28;20236;-80
2022/02/07 03:45:24;;;;;;;2.05;0.35;;;3.10;91.90;;;;;;5044555;28;20240;-80
2022/02/07 03:47:54;;;;;;;1.48;0.30;;;3.10;92.50;;;;;;5039429;28;20227;-79
2022/02/07 03:50:25;;;;;;;0.75;0.50;;;3.10;92.70;;;;;;5040497;28;20256;-80
2022/02/07 03:52:54;;;;;;;0.55;0.30;;;3.00;93.20;;;;;;5039676;28;20232;-80
2022/02/07 03:55:27;;;;;;;3.05;0.52;;;3.00;93.50;;;;;;5038942;28;20215;-80
2022/02/07 03:57:58;;;;;;;0.52;0.40;;;3.00;93.80;;;;;;5026826;28;20209;-79
2022/02/07 04:00:26;;;;;;;2.28;0.50;;;3.00;94.40;;;;;;5047059;28;20672;-79
2022/02/07 04:02:57;;;;;;;1.95;0.80;;;2.90;94.70;;;;;;5025235;28;20245;-79
2022/02/07 04:05:55;;;;;;;3.05;0.75;;;2.90;95.30;;;;;;5038612;28;20588;-79
2022/02/07 04:08:29;;;;;;;1.35;0.73;;;3.00;95.70;;;;;;5021993;28;20215;-79
2022/02/07 04:11:04;;;;;;;2.20;0.57;;;2.90;95.50;;;;;;5039817;28;20212;-80
2022/02/07 04:13:55;;;;;;;1.35;0.63;;;2.90;94.90;;;;;;5022311;28;20256;-79
2022/02/07 04:16:26;;;;;;;5.78;0.82;;;2.90;94.30;;;;;;5030097;28;20206;-79
2022/02/07 04:19:06;;;;;;;0.60;0.45;;;2.90;92.80;;;;;;5043510;28;20262;-80
2022/02/07 04:21:38;;;;;;;2.75;0.68;;;2.90;92.50;;;;;;5031526;28;20236;-79
2022/02/07 04:24:25;;;;;;;1.30;0.60;;;2.90;92.10;;;;;;5045986;28;20602;-79
2022/02/07 04:26:54;;;;;;;0.70;0.47;;;2.90;92.10;;;;;;5047274;28;20211;-79
2022/02/07 04:29:24;;;;;;;1.35;0.60;;;2.90;91.90;;;;;;5048657;28;20270;-80
2022/02/07 04:31:51;;;;;;;0.63;0.40;;;2.90;91.40;;;;;;5047720;28;20235;-79
2022/02/07 04:34:19;;;;;;;0.68;0.50;;;2.80;91.30;;;;;;5049363;28;20213;-79
2022/02/07 04:36:51;;;;;;;1.20;0.50;;;2.80;91.50;;;;;;5049462;28;20210;-79
2022/02/07 04:39:21;;;;;;;1.05;0.70;;;2.80;91.70;;;;;;5050353;28;20198;-80
2022/02/07 04:44:35;;;;;;;1.48;0.85;;;2.60;92.70;;;;;;5390440;22;20242;-78
2022/02/07 04:47:11;;;;;;;1.38;0.65;;;2.50;93.70;;;;;;5052456;28;20217;-80
2022/02/07 04:49:58;;;;;;;3.25;0.70;;;2.60;94.80;;;;;;5051745;28;20196;-79
2022/02/07 04:52:42;;;;;;;2.17;0.90;;;2.60;95.90;;;;;;5051262;28;20229;-79
2022/02/07 04:55:15;;;;;;;1.55;0.70;;;2.60;96.30;;;;;;5052164;28;20238;-79
2022/02/07 04:57:56;;;;;;;3.00;0.90;;;2.60;96.00;;;;;;5053327;28;20202;-79
2022/02/07 05:00:40;;;;;;;1.30;0.77;;;2.60;96.10;;;;;;5052437;28;20212;-79
2022/02/07 05:03:12;;;;;;;1.00;0.80;;;2.50;96.70;;;;;;5052009;28;20217;-79
2022/02/07 05:13:54;;;;;;;1.42;0.75;;;2.60;99.40;;;;;;5037459;28;20192;-79
2022/02/07 05:16:26;;;;;;;1.10;1.00;;;2.50;99.70;;;;;;5035922;28;20200;-79
2022/02/07 05:18:56;;;;;;;2.97;1.05;;;2.50;99.90;;;;;;5037578;28;20211;-79
2022/02/07 05:21:25;;;;;;;2.75;0.90;;;2.50;99.90;;;;;;5037371;28;20322;-79
2022/02/07 05:23:53;;;;;;;2.58;0.80;;;2.50;99.90;;;;;;5037213;28;20207;-80
2022/02/07 05:26:20;;;;;;;3.70;1.25;;;2.50;99.90;;;;;;5036560;28;20205;-79
2022/02/07 05:28:48;;;;;;;1.90;1.20;;;2.50;99.90;;;;;;5036963;28;20574;-79
2022/02/07 05:31:18;;;;;;;1.25;0.85;;;2.50;99.90;;;;;;5036682;28;20299;-79
2022/02/07 05:33:47;;;;;;;3.88;1.20;;;2.40;99.90;;;;;;5041163;28;20219;-80
2022/02/07 05:36:14;;;;;;;2.75;1.65;;;2.40;99.90;;;;;;5050197;28;20212;-79
2022/02/07 05:38:45;;;;;;;3.53;1.40;;;2.40;99.90;;;;;;5050792;28;20208;-79
2022/02/07 05:41:16;;;;;;;2.83;1.05;;;2.30;99.90;;;;;;5042929;28;20243;-80
2022/02/07 05:43:47;;;;;;;3.67;1.80;;;2.40;99.90;;;;;;5036852;28;20220;-80
2022/02/07 05:46:15;;;;;;;4.72;1.40;;;2.30;99.90;;;;;;5037366;28;20210;-80
2022/02/07 05:48:43;;;;;;;3.67;1.42;;;2.30;99.90;;;;;;5044843;28;20589;-79
2022/02/07 05:51:15;;;;;;;1.75;1.42;;;2.30;99.90;;;;;;5048382;28;20212;-80
2022/02/07 05:53:42;;;;;;;2.00;1.38;;;2.30;99.90;;;;;;5048010;28;20243;-80
2022/02/07 05:56:10;;;;;;;3.78;1.00;;;2.40;99.90;;;;;;5048841;28;20256;-78
2022/02/07 05:58:37;;;;;;;1.85;1.00;;;2.30;99.90;;;;;;5050180;28;20236;-80
2022/02/07 06:01:04;;;;;;;2.60;1.38;;;2.40;99.90;;;;;;5046226;28;20232;-79
2022/02/07 06:03:31;;;;;;;2.90;1.20;;;2.40;99.90;;;;;;5040295;28;20235;-79
2022/02/07 06:05:57;;;;;;;3.40;1.27;;;2.30;99.90;;;;;;5044988;28;20183;-80
2022/02/07 06:08:26;;;;;;;4.43;1.20;;;2.30;99.90;;;;;;5051872;28;20238;-79
2022/02/07 06:10:53;;;;;;;2.72;1.35;;;2.30;99.90;;;;;;5049645;28;20204;-80
2022/02/07 06:13:20;;;;;;;2.90;1.20;;;2.30;99.90;;;;;;5055318;28;20284;-79
2022/02/07 06:15:47;;;;;;;2.20;1.30;;;2.30;99.90;;;;;;5051871;28;20233;-79
2022/02/07 06:18:17;;;;;;;3.53;1.42;;;2.20;99.90;;;;;;5051741;28;20201;-80
2022/02/07 06:20:44;;;;;;;1.15;0.95;;;2.20;99.90;;;;;;5050961;28;20214;-79
2022/02/07 06:23:11;;;;;;;1.67;0.90;;;2.30;99.90;;;;;;5051797;28;20593;-79
2022/02/07 06:25:39;;;;;;;3.50;1.17;;;2.20;99.90;;;;;;5053025;28;20205;-79
2022/02/07 06:28:06;;;;;;;1.88;0.82;;;2.30;99.90;;;;;;5057902;28;20209;-79
2022/02/07 06:30:33;;;;;;;1.80;0.85;;;2.40;99.90;;;;;;5060223;28;20200;-80
2022/02/07 06:33:00;;;;;;;1.90;0.90;;;2.40;99.90;;;;;;5059237;28;20239;-79
2022/02/07 06:35:27;;;;;;;1.95;1.10;;;2.40;99.90;;;;;;5057071;28;20201;-78
2022/02/07 06:37:55;;;;;;;0.90;0.90;;;2.30;99.90;;;;;;5058226;28;20209;-80
2022/02/07 06:40:22;;;;;;;3.95;1.08;;;2.30;99.90;;;;;;5058731;28;20266;-78
2022/02/07 06:42:51;;;;;;;2.67;1.30;;;2.30;99.90;;;;;;5058159;28;20233;-80
2022/02/07 06:45:18;;;;;;;7.50;1.63;;;2.20;99.30;;;;;;5056660;28;20267;-80
2022/02/07 06:47:44;;;;;;;1.58;1.00;;;2.20;99.30;;;;;;5057240;28;20217;-79
2022/02/07 06:50:11;;;;;;;3.85;1.23;;;2.20;99.30;;;;;;5054962;28;20241;-80
2022/02/07 06:52:39;;;;;;;2.83;1.30;;;2.20;99.30;;;;;;5055651;28;20320;-80
2022/02/07 06:55:09;;;;;;;4.30;1.33;;;2.20;99.30;;;;;;5053105;28;20217;-80
2022/02/07 06:57:36;;;;;;;2.78;1.40;;;2.20;99.30;;;;;;5046989;28;20212;-80
2022/02/07 07:00:11;;;;;;;4.20;1.30;;;2.20;99.20;;;;;;5045141;28;20209;-80
2022/02/07 07:02:39;;;;;;;2.22;2.03;;;2.10;99.00;;;;;;5047900;28;20257;-81
2022/02/07 07:05:22;;;;;;;1.65;1.13;;;2.10;99.20;;;;;;5048069;28;20214;-81
2022/02/07 08:07:19;;;;;;;3.95;1.70;;;4.00;80.60;;;;;;4722967;30;20264;-80
2022/02/07 08:10:25;;;;;;;4.90;1.55;;;3.90;80.50;;;;;;4749619;30;20247;-81
2022/02/07 08:12:54;;;;;;;3.85;1.35;;;3.90;79.60;;;;;;4742012;30;20249;-81
2022/02/07 08:15:21;;;;;;;2.75;1.23;;;3.80;80.00;;;;;;4746778;30;20214;-82
2022/02/07 08:17:48;;;;;;;3.05;1.40;;;3.80;80.30;;;;;;4756729;30;20259;-80
2022/02/07 08:20:16;;;;;;;3.53;1.75;;;3.90;80.10;;;;;;4740964;30;20210;-81
2022/02/07 08:22:49;;;;;;;2.67;1.27;;;3.90;79.90;;;;;;4741718;30;20291;-81
2022/02/07 08:25:16;;;;;;;7.18;1.70;;;3.90;78.90;;;;;;4743874;30;20737;-80
2022/02/07 08:27:43;;;;;;;6.43;2.30;;;4.00;79.50;;;;;;4748574;30;20215;-80
2022/02/07 08:30:54;;;;;;;3.10;1.50;;;4.10;78.90;;;;;;4828073;29;20205;-82
2022/02/07 08:33:41;;;;;;;6.13;1.83;;;4.20;76.90;;;;;;4882042;29;20232;-80
2022/02/07 08:36:09;;;;;;;3.85;2.00;;;4.30;74.00;;;;;;4867244;29;20217;-80
2022/02/07 08:38:41;;;;;;;2.10;1.30;;;4.50;73.40;;;;;;4876899;29;20224;-81
2022/02/07 08:44:13;;;;;;;3.42;1.88;;;4.60;72.70;;;;;;4896033;29;20544;-80
2022/02/07 08:46:56;;;;;;;7.22;2.20;;;4.60;70.90;;;;;;4874348;29;20252;-81
2022/02/07 08:49:27;;;;;;;4.90;1.63;;;4.60;69.80;;;;;;4891192;29;20599;-81
2022/02/07 08:52:07;;;;;;;7.78;2.30;;;4.50;69.20;;;;;;4889968;29;20311;-83
2022/02/07 08:54:37;;;;;;;7.63;2.28;;;4.60;68.30;;;;;;4845150;29;20211;-82
2022/02/07 08:57:14;;;;;;;4.25;1.50;;;4.50;68.00;;;;;;4903836;29;20217;-80
2022/02/07 08:59:56;;;;;;;4.10;1.60;;;4.50;67.90;;;;;;4959718;29;20259;-80
2022/02/07 09:02:50;;;;;;;4.63;1.58;;;4.60;67.00;;;;;;4950188;29;20241;-79
2022/02/07 09:05:33;;;;;;;5.15;1.85;;;4.60;67.20;;;;;;4948560;29;20216;-81
2022/02/07 09:08:19;;;;;;;2.83;1.80;;;4.70;65.30;;;;;;4945162;29;20228;-80
2022/02/07 09:10:47;;;;;;;4.45;1.25;;;4.80;65.50;;;;;;4950422;29;20213;-79
2022/02/07 09:13:18;;;;;;;4.05;1.73;;;4.90;65.00;;;;;;4959339;29;20240;-80
2022/02/07 09:16:02;;;;;;;8.77;2.45;;;4.90;64.30;;;;;;4959409;29;20227;-80
2022/02/07 09:18:31;;;;;;;5.63;1.63;;;5.00;64.20;;;;;;4959952;29;20225;-80
2022/02/07 09:21:01;;;;;;;5.68;1.80;;;5.00;63.30;;;;;;4959094;29;20213;-80
2022/02/07 09:23:31;;;;;;;6.57;1.63;;;5.00;63.70;;;;;;4960091;29;20231;-80
2022/02/07 09:26:12;;;;;;;4.15;1.75;;;5.10;62.60;;;;;;4973167;29;20218;-79
2022/02/07 09:28:45;;;;;;;3.92;1.80;;;5.00;63.20;;;;;;4969715;29;20612;-80
2022/02/07 09:31:15;;;;;;;7.40;1.83;;;4.90;62.80;;;;;;4965977;29;20199;-81
2022/02/07 09:33:45;;;;;;;4.03;1.92;;;5.00;62.80;;;;;;4975148;29;20206;-79
2022/02/07 09:36:13;;;;;;;7.75;2.75;;;4.90;62.70;;;;;;4974884;28;20218;-80
2022/02/07 09:38:41;;;;;;;8.23;2.40;;;5.00;63.90;;;;;;4969979;28;20293;-79
2022/02/07 09:41:09;;;;;;;7.20;2.17;;;5.00;63.60;;;;;;4958301;28;20228;-80
2022/02/07 09:43:43;;;;;;;4.20;1.80;;;5.10;62.80;;;;;;4959959;28;20218;-79
2022/02/07 09:46:17;;;;;;;5.93;2.17;;;5.30;62.30;;;;;;4957387;29;20204;-79
2022/02/07 09:48:52;;;;;;;4.40;1.50;;;5.40;61.70;;;;;;4960552;29;20737;-81
2022/02/07 09:51:20;;;;;;;4.47;1.50;;;5.50;61.00;;;;;;4961201;28;20210;-79
2022/02/07 09:53:51;;;;;;;6.78;1.77;;;5.70;59.50;;;;;;4963585;28;20240;-79
2022/02/07 09:56:21;;;;;;;2.38;1.33;;;5.70;59.20;;;;;;4967928;28;20369;-80
2022/02/07 09:58:51;;;;;;;6.80;1.50;;;5.60;59.20;;;;;;4966863;28;20234;-80
2022/02/07 10:01:26;;;;;;;5.05;1.50;;;5.60;58.90;;;;;;4968904;28;20647;-79
2022/02/07 10:04:03;;;;;;;7.40;1.70;;;5.70;58.10;;;;;;4972351;29;20230;-79
2022/02/07 10:06:54;;;;;;;6.03;2.00;;;5.80;58.00;;;;;;4971803;28;20204;-80
2022/02/07 10:15:20;;;;;;;3.83;1.63;;;5.70;57.80;;;;;;4966637;28;20236;-80
2022/02/07 10:17:59;;;;;;;6.15;1.20;;;5.70;57.60;;;;;;4970925;28;20223;-80
2022/02/07 10:40:26;;;;;;;4.70;2.00;;;6.20;56.40;;;;;;4972579;29;20263;-79
2022/02/07 10:46:04;;;;;;;4.18;1.40;;;6.50;55.20;;;;;;4959906;28;20199;-79
2022/02/07 10:48:40;;;;;;;7.07;1.85;;;6.50;55.10;;;;;;4963744;28;20689;-80
2022/02/07 10:51:14;;;;;;;7.22;2.75;;;6.70;55.70;;;;;;4960206;28;20227;-80
2022/02/07 10:53:49;;;;;;;5.65;1.50;;;6.90;54.40;;;;;;4969639;29;20298;-80
2022/02/07 10:56:21;;;;;;;7.70;1.77;;;7.00;52.60;;;;;;4972939;28;20209;-79
2022/02/07 10:58:58;;;;;;;10.18;1.90;;;6.90;52.90;;;;;;4965723;28;20211;-80
2022/02/07 11:01:39;;;;;;;7.97;1.80;;;6.90;53.50;;;;;;4962671;28;20228;-80
2022/02/07 11:04:14;;;;;;;8.35;2.55;;;6.90;53.60;;;;;;4964900;28;20237;-80
2022/02/07 11:06:47;;;;;;;4.60;2.22;;;7.00;54.00;;;;;;4962395;28;20200;-80
2022/02/07 11:09:22;;;;;;;6.93;2.03;;;6.80;52.70;;;;;;4961524;28;20270;-80
2022/02/07 11:14:48;;;;;;;6.88;2.65;;;6.80;52.20;;;;;;4972545;28;20239;-80
2022/02/07 11:17:30;;;;;;;7.85;1.80;;;6.80;52.20;;;;;;4970528;28;20214;-79
2022/02/07 11:20:32;;;;;;;3.53;1.73;;;6.80;51.60;;;;;;4965854;28;20208;-80
2022/02/07 11:23:15;;;;;;;9.10;1.80;;;6.70;51.30;;;;;;4969113;28;20259;-79
2022/02/07 11:25:49;;;;;;;8.32;2.17;;;6.60;50.80;;;;;;4973772;28;20217;-80
2022/02/07 11:28:24;;;;;;;5.40;1.77;;;6.60;50.60;;;;;;4972528;29;20283;-80
2022/02/07 11:31:01;;;;;;;4.50;2.45;;;6.50;51.80;;;;;;4971735;28;20207;-78
2022/02/07 11:33:50;;;;;;;7.43;1.88;;;6.50;51.50;;;;;;4962473;28;20239;-79
2022/02/07 11:36:27;;;;;;;4.35;1.92;;;6.50;52.40;;;;;;4962400;28;20277;-79
2022/02/07 11:39:01;;;;;;;5.05;1.55;;;6.40;52.60;;;;;;4975381;28;20215;-79
2022/02/07 11:41:50;;;;;;;6.63;2.40;;;6.50;52.00;;;;;;5043570;28;20218;-80
2022/02/07 11:44:19;;;;;;;3.78;1.88;;;6.50;51.90;;;;;;5065005;28;20216;-79
2022/02/07 11:46:47;;;;;;;5.10;1.80;;;6.50;51.40;;;;;;5076673;28;20189;-80
2022/02/07 11:49:25;;;;;;;6.85;2.20;;;6.50;51.90;;;;;;5076769;28;20248;-80
2022/02/07 11:51:54;;;;;;;7.47;2.72;;;6.50;52.00;;;;;;5063908;28;20235;-79
2022/02/07 12:06:00;;;;;;;5.78;1.40;;;6.60;52.00;;;;;;5163975;22;20743;-79
2022/02/07 12:08:32;;;;;;;3.30;1.98;;;6.50;51.90;;;;;;5096549;28;20236;-79
2022/02/07 12:11:08;;;;;;;7.32;2.15;;;6.50;52.60;;;;;;5099632;22;20220;-74
2022/02/07 12:13:39;;;;;;;5.18;2.15;;;6.40;52.40;;;;;;5066424;28;20223;-74
2022/02/07 12:16:11;;;;;;;7.65;2.33;;;6.50;52.70;;;;;;5076315;28;20202;-74
2022/02/07 12:18:39;;;;;;;3.58;1.58;;;6.50;53.20;;;;;;5084936;28;20232;-74
2022/02/07 12:21:24;;;;;;;5.88;2.10;;;6.60;53.20;;;;;;5075054;28;20250;-74
2022/02/07 12:23:55;;;;;;;4.43;2.20;;;6.60;53.10;;;;;;5071164;28;20205;-74
2022/02/07 12:26:23;;;;;;;11.00;2.28;;;6.50;53.20;;;;;;5071286;28;20509;-73
2022/02/07 12:28:57;;;;;;;5.30;1.65;;;6.60;53.50;;;;;;5060664;28;20681;-74
2022/02/07 12:31:26;;;;;;;10.00;2.55;;;6.70;53.80;;;;;;5058877;28;20273;-73
2022/02/07 12:33:55;;;;;;;5.90;2.30;;;6.70;52.70;;;;;;5076314;28;20216;-74
2022/02/07 12:36:24;;;;;;;2.88;1.50;;;6.70;53.30;;;;;;5054548;28;20235;-75
2022/02/07 12:38:51;;;;;;;5.65;2.30;;;6.80;52.60;;;;;;5054739;28;20209;-74
2022/02/07 12:41:19;;;;;;;5.68;2.58;;;6.70;52.90;;;;;;5053405;28;20223;-73
2022/02/07 12:43:49;;;;;;;7.90;2.70;;;6.80;53.30;;;;;;5076163;28;20275;-74
2022/02/07 12:46:20;;;;;;;5.30;1.85;;;6.80;53.40;;;;;;5055440;28;20656;-75
2022/02/07 12:48:55;;;;;;;6.90;2.65;;;6.80;53.00;;;;;;5068375;28;20202;-75
2022/02/07 12:51:24;;;;;;;4.53;1.98;;;6.80;53.00;;;;;;5059396;28;20655;-75
2022/02/07 12:53:53;;;;;;;5.43;1.60;;;6.70;53.10;;;;;;5059178;28;20223;-74
2022/02/07 12:56:21;;;;;;;3.28;1.83;;;6.80;53.40;;;;;;5076612;28;20310;-75
2022/02/07 12:58:49;;;;;;;4.05;1.70;;;6.70;52.70;;;;;;5068119;28;20212;-75
2022/02/07 13:01:19;;;;;;;4.63;2.03;;;6.70;52.50;;;;;;5047222;28;20294;-75
2022/02/07 13:03:55;;;;;;;9.02;2.13;;;6.70;53.20;;;;;;5047451;28;20206;-74
2022/02/07 13:06:27;;;;;;;5.75;1.83;;;6.70;53.20;;;;;;5052059;28;20223;-74
2022/02/07 13:08:56;;;;;;;5.78;1.88;;;6.70;52.80;;;;;;5050356;28;20208;-74
2022/02/07 13:11:26;;;;;;;4.85;2.22;;;6.80;53.30;;;;;;5051159;28;20756;-74
2022/02/07 13:13:54;;;;;;;5.40;2.90;;;6.80;53.00;;;;;;5054166;28;20231;-74
2022/02/07 13:16:23;;;;;;;6.65;2.78;;;6.80;53.70;;;;;;5054797;28;20271;-73
2022/02/07 13:18:50;;;;;;;9.20;3.20;;;6.90;53.00;;;;;;5055619;28;20212;-73
2022/02/07 13:21:18;;;;;;;16.27;4.05;;;6.90;53.10;;;;;;5055927;28;20230;-74
2022/02/07 13:23:47;;;;;;;4.75;1.90;;;6.80;52.80;;;;;;5056629;28;20294;-74
2022/02/07 13:26:15;;;;;;;9.63;2.13;;;6.80;52.80;;;;;;5056331;28;20222;-73
2022/02/07 13:28:43;;;;;;;7.47;1.90;;;6.90;52.30;;;;;;5053954;28;20307;-74
2022/02/07 13:31:11;;;;;;;3.42;1.83;;;7.00;52.00;;;;;;5053115;28;20296;-74
2022/02/07 13:33:53;;;;;;;2.95;1.95;;;7.00;51.70;;;;;;5052976;28;20581;-73
2022/02/07 13:36:28;;;;;;;4.72;1.98;;;7.00;51.30;;;;;;5051525;28;20559;-74
2022/02/07 13:39:02;;;;;;;4.63;2.05;;;7.00;51.90;;;;;;5051969;28;20741;-73
2022/02/07 13:41:29;;;;;;;4.68;2.30;;;7.00;51.50;;;;;;5052519;28;20305;-74
2022/02/07 13:43:59;;;;;;;8.00;2.25;;;7.00;52.00;;;;;;5052703;28;20293;-74
2022/02/07 13:46:29;;;;;;;7.78;2.65;;;7.10;51.50;;;;;;5053611;28;20618;-74
2022/02/07 13:48:59;;;;;;;3.83;2.00;;;7.10;52.00;;;;;;5058303;28;20216;-74
2022/02/07 13:51:28;;;;;;;6.43;1.92;;;7.10;51.40;;;;;;5056364;28;20224;-74
2022/02/07 13:53:55;;;;;;;7.30;1.63;;;7.20;51.90;;;;;;5052351;28;20314;-74
2022/02/07 13:56:30;;;;;;;6.80;2.05;;;7.20;50.50;;;;;;5052797;28;20215;-73
2022/02/07 13:59:13;;;;;;;7.93;2.10;;;7.10;50.10;;;;;;5054230;28;20211;-74
2022/02/07 14:01:40;;;;;;;4.80;2.22;;;7.10;51.20;;;;;;5054132;28;20683;-74
2022/02/07 14:04:19;;;;;;;8.27;2.70;;;7.10;51.40;;;;;;5055774;28;20290;-73
2022/02/07 14:07:07;;;;;;;4.22;1.50;;;7.20;51.90;;;;;;5055586;28;20206;-73
2022/02/07 14:09:35;;;;;;;7.32;2.17;;;7.20;51.30;;;;;;5042770;28;20212;-73
2022/02/07 14:12:03;;;;;;;4.75;1.63;;;7.10;51.20;;;;;;5053518;28;20645;-74
2022/02/07 14:14:30;;;;;;;7.80;1.90;;;7.10;51.40;;;;;;5053315;28;20228;-74
2022/02/07 14:16:58;;;;;;;7.35;2.28;;;7.20;51.70;;;;;;5053391;28;20589;-74
2022/02/07 14:19:39;;;;;;;9.77;2.20;;;7.10;51.20;;;;;;5053150;28;20209;-74
2022/02/07 14:22:07;;;;;;;3.95;2.00;;;7.20;51.00;;;;;;5032293;28;20236;-75
2022/02/07 14:24:34;;;;;;;6.55;2.10;;;7.20;50.50;;;;;;5032663;28;20213;-75
2022/02/07 14:27:02;;;;;;;6.38;2.10;;;7.20;50.40;;;;;;5051594;28;20310;-75
2022/02/07 14:29:29;;;;;;;4.32;1.60;;;7.20;50.20;;;;;;5052621;28;20204;-74
2022/02/07 14:31:56;;;;;;;7.57;2.00;;;7.10;49.20;;;;;;5053523;28;20232;-74
2022/02/07 14:34:23;;;;;;;4.88;2.05;;;7.10;50.50;;;;;;5057219;28;20266;-74
2022/02/07 14:36:51;;;;;;;5.53;1.75;;;7.00;50.10;;;;;;5059361;28;20212;-73
2022/02/07 14:39:18;;;;;;;5.05;2.20;;;7.00;49.80;;;;;;5054263;28;20295;-73
2022/02/07 14:41:47;;;;;;;12.57;2.10;;;7.10;48.90;;;;;;5055058;28;20232;-74
2022/02/07 14:44:21;;;;;;;6.60;2.15;;;7.10;49.20;;;;;;5055044;28;20231;-73
2022/02/07 14:47:01;;;;;;;5.82;2.08;;;7.00;49.30;;;;;;5057280;28;20357;-73
2022/02/07 14:49:28;;;;;;;7.00;1.52;;;7.10;49.20;;;;;;5068227;28;20211;-74
2022/02/07 14:51:59;;;;;;;3.72;1.77;;;7.10;48.10;;;;;;5065324;28;20690;-74
2022/02/07 14:54:26;;;;;;;6.45;2.10;;;7.00;49.00;;;;;;5067596;28;20227;-73
2022/02/07 14:56:53;;;;;;;4.15;2.00;;;7.00;48.40;;;;;;5066938;28;20298;-74
2022/02/07 14:59:23;;;;;;;7.57;2.10;;;6.90;49.00;;;;;;5057849;28;20207;-74
2022/02/07 15:01:52;;;;;;;5.03;1.60;;;6.80;49.00;;;;;;5057210;28;20711;-74
2022/02/07 15:04:19;;;;;;;4.80;1.85;;;6.80;48.70;;;;;;5056634;28;20204;-75
2022/02/07 15:06:46;;;;;;;4.85;1.60;;;6.80;50.10;;;;;;5056863;28;20217;-75
2022/02/07 15:09:18;;;;;;;3.67;2.15;;;6.80;49.80;;;;;;5057091;28;20215;-75
2022/02/07 15:11:45;;;;;;;3.47;1.45;;;6.80;50.10;;;;;;5057143;28;20245;-74
2022/02/07 15:14:13;;;;;;;8.50;2.20;;;6.90;49.60;;;;;;5059127;28;20231;-75
2022/02/07 15:16:39;;;;;;;4.03;1.98;;;6.90;49.40;;;;;;5062157;28;20236;-75
2022/02/07 15:19:06;;;;;;;7.03;2.83;;;6.90;48.50;;;;;;5064377;28;20232;-73
2022/02/07 15:21:33;;;;;;;5.60;1.75;;;7.00;49.30;;;;;;5058192;28;21508;-76
2022/02/07 15:24:00;;;;;;;3.10;1.48;;;6.90;48.60;;;;;;5055619;28;20237;-74
2022/02/07 15:26:28;;;;;;;7.10;2.00;;;6.90;47.60;;;;;;5055751;28;20549;-75
2022/02/07 15:28:55;;;;;;;3.42;1.60;;;6.90;47.60;;;;;;5054832;28;20217;-74
2022/02/07 15:31:29;;;;;;;3.53;1.95;;;6.90;48.70;;;;;;5054777;28;20220;-74
2022/02/07 15:33:55;;;;;;;6.93;2.47;;;6.90;49.10;;;;;;5056058;28;20214;-73
2022/02/07 15:36:24;;;;;;;5.85;2.00;;;6.90;49.20;;;;;;5056439;28;20318;-76
2022/02/07 15:38:51;;;;;;;5.80;1.60;;;6.80;49.20;;;;;;5056665;28;20333;-74
2022/02/07 15:41:18;;;;;;;7.38;2.15;;;6.80;49.60;;;;;;5055199;28;20230;-76
2022/02/07 15:43:47;;;;;;;5.13;1.98;;;6.80;48.70;;;;;;5055062;28;20253;-75
2022/02/07 15:46:14;;;;;;;4.60;2.05;;;6.80;48.90;;;;;;5056098;28;20231;-75
2022/02/07 15:48:41;;;;;;;4.88;1.90;;;6.80;48.90;;;;;;5055395;28;20195;-75
2022/02/07 15:51:09;;;;;;;4.72;1.88;;;6.80;47.90;;;;;;5058039;28;20233;-76
2022/02/07 15:53:37;;;;;;;11.13;2.90;;;6.80;48.80;;;;;;5055532;28;20241;-74
2022/02/07 15:56:05;;;;;;;6.63;2.50;;;6.70;48.00;;;;;;5055125;28;20698;-75
2022/02/07 15:58:32;;;;;;;8.00;3.70;;;6.70;48.70;;;;;;5056870;28;20270;-75
2022/02/07 16:01:00;;;;;;;3.47;1.83;;;6.70;49.20;;;;;;5070644;28;20223;-74
2022/02/07 16:03:27;;;;;;;6.50;2.00;;;6.60;48.60;;;;;;5066113;28;20538;-76
2022/02/07 16:05:54;;;;;;;9.43;2.20;;;6.60;48.50;;;;;;5060057;28;20264;-77
2022/02/07 16:08:21;;;;;;;5.80;1.50;;;6.60;48.50;;;;;;5058266;28;20213;-75
2022/02/07 16:10:48;;;;;;;4.43;1.65;;;6.50;48.30;;;;;;5058166;28;20268;-74
2022/02/07 16:13:20;;;;;;;4.00;1.92;;;6.50;47.90;;;;;;5058539;28;20198;-73
2022/02/07 16:15:49;;;;;;;8.10;2.25;;;6.40;48.30;;;;;;5057267;28;20215;-72